Appleyard, Washington
Current Conditions -  °F | °C
As of 11:55 AM on Saturday 25 Oct 2014 (Local Time) from KEAT Reporting Station
Overcast Overcast  
Wind Chill: 52°   Ceiling: 3200
Heat Index: 52°   Visibility: 10mi
Dew Point: 45°   Wind: 0mph
Humidity: 77%   Direction: NA
Pressure: 29.59"   Gusts: NA
Location:  47.3635°N, 120.348°W
Report Text: KEAT 251855Z AUTO 00000KT 10SM OVC032 11/07 A2959 RMK AO2 SLP020 T01110072
Loading
Personal Weather Stations






























Interactive Weather Map New forecast layout! Learn more

10-Day Weather Forecast

Advertisements
Track Severe Weather on mobile